Terminal Aerodrome Forecast
Issued by NWS Bismarck, ND

Current Version | Previous Version | Text Only | Print | Product List | Glossary On
Versions: 1 2 3 4 5 6 7 8 9 10 11 12 13 14 15 16 17 18 19 20 21 22
000
FTUS43 KBIS 191100
TAFISN
TAF
KISN 191123Z 1912/2012 24014G22KT P6SM BKN040
     FM191500 28022G28KT P6SM SCT060
     FM192100 28017G23KT P6SM SKC
     FM200100 VRB04KT P6SM SKC
     FM200500 15004KT P6SM SCT180=

USA.gov is the U.S. government's official web portal to all federal, state and local government web resources and services.